Time;durP1;ratioP1;P1;durP2;ratioP2;P2;SDS_P1;SDS_P2;PMS_P1;PMS_P2;Temp;Humidity;BMP_temperature;BMP_pressure;BME280_temperature;BME280_humidity;BME280_pressure;Samples;Min_cycle;Max_cycle;Signal;HPM_P1;HPM_P2
2022/01/26 00:05:49;;;;;;;12.87;9.70;;;5.60;99.90;;;;;;4987138;28;20224;-66
2022/01/26 00:08:15;;;;;;;15.07;9.30;;;5.60;99.90;;;;;;4990868;28;20242;-68
2022/01/26 00:10:40;;;;;;;13.77;9.13;;;5.70;99.90;;;;;;4995508;28;20196;-68
2022/01/26 00:13:06;;;;;;;14.57;9.10;;;5.60;99.90;;;;;;4992334;28;20411;-75
2022/01/26 00:15:31;;;;;;;14.33;9.53;;;5.60;99.90;;;;;;4995712;28;20188;-75
2022/01/26 00:17:57;;;;;;;13.57;8.57;;;5.40;99.90;;;;;;4993519;28;20958;-78
2022/01/26 00:20:29;;;;;;;14.73;9.67;;;5.20;99.90;;;;;;4995364;28;20213;-76
2022/01/26 00:23:03;;;;;;;16.93;9.30;;;5.20;99.90;;;;;;4992849;28;20200;-76
2022/01/26 00:25:43;;;;;;;15.30;9.73;;;5.10;99.90;;;;;;4991127;28;20208;-75
2022/01/26 00:38:49;;;;;;;19.97;12.27;;;4.80;99.90;;;;;;4996542;28;20355;-75
2022/01/26 00:41:21;;;;;;;18.80;10.80;;;4.70;99.90;;;;;;4993910;28;20618;-74
2022/01/26 00:43:52;;;;;;;17.03;10.83;;;4.70;99.90;;;;;;4990631;28;20207;-76
2022/01/26 00:46:19;;;;;;;20.03;10.77;;;4.70;99.90;;;;;;4993771;28;20213;-76
2022/01/26 00:48:45;;;;;;;20.40;11.37;;;4.80;99.90;;;;;;4990568;28;20240;-76
2022/01/26 00:51:15;;;;;;;15.87;9.70;;;4.70;99.90;;;;;;4996079;28;20547;-77
2022/01/26 00:56:24;;;;;;;19.90;12.57;;;4.70;99.90;;;;;;4997269;28;20215;-77
2022/01/26 00:58:50;;;;;;;19.80;12.17;;;4.70;99.90;;;;;;4993167;28;20698;-76
2022/01/26 01:01:16;;;;;;;24.37;11.93;;;4.70;99.90;;;;;;4994757;28;20269;-80
2022/01/26 01:03:45;;;;;;;17.93;11.50;;;4.70;99.90;;;;;;4990238;28;20207;-78
2022/01/26 01:06:20;;;;;;;20.80;11.83;;;4.70;99.90;;;;;;4996712;28;20224;-63
2022/01/26 01:08:47;;;;;;;19.90;11.50;;;4.70;99.90;;;;;;4990207;28;20254;-64
2022/01/26 01:11:12;;;;;;;18.57;11.73;;;4.70;99.90;;;;;;4990696;28;20204;-65
2022/01/26 01:13:41;;;;;;;18.20;10.60;;;4.70;99.90;;;;;;4991524;28;20250;-65
2022/01/26 01:16:10;;;;;;;18.50;10.83;;;4.80;99.90;;;;;;4993301;28;20280;-64
2022/01/26 01:21:57;;;;;;;15.40;10.73;;;4.70;99.90;;;;;;4994037;28;20212;-64
2022/01/26 01:24:35;;;;;;;19.27;11.33;;;4.60;99.90;;;;;;4988985;28;20229;-65
2022/01/26 01:27:25;;;;;;;19.90;10.07;;;4.60;99.90;;;;;;4984914;28;20201;-66
2022/01/26 01:30:03;;;;;;;16.97;9.43;;;4.60;99.90;;;;;;4994320;28;20317;-66
2022/01/26 01:32:38;;;;;;;20.23;10.97;;;4.60;99.90;;;;;;4993303;28;20204;-66
2022/01/26 01:35:08;;;;;;;18.17;10.93;;;4.60;99.90;;;;;;4992453;28;20188;-68
2022/01/26 01:37:33;;;;;;;14.53;9.17;;;4.50;99.90;;;;;;4992606;28;20224;-67
2022/01/26 01:39:59;;;;;;;20.23;11.00;;;4.50;99.90;;;;;;4993894;28;20662;-66
2022/01/26 01:42:25;;;;;;;20.23;10.70;;;4.50;99.90;;;;;;4993414;28;20246;-68
2022/01/26 01:44:51;;;;;;;18.27;10.43;;;4.40;99.90;;;;;;4995035;28;20189;-66
2022/01/26 01:47:16;;;;;;;17.60;10.27;;;4.50;99.90;;;;;;4990005;28;20663;-65
2022/01/26 01:49:42;;;;;;;17.23;10.57;;;4.50;99.90;;;;;;4994552;28;20219;-64
2022/01/26 01:52:13;;;;;;;17.03;9.20;;;4.40;99.90;;;;;;4995110;28;20630;-64
2022/01/26 01:54:41;;;;;;;15.70;9.20;;;4.40;99.90;;;;;;4991531;28;20726;-66
2022/01/26 01:57:07;;;;;;;14.37;9.20;;;4.40;99.90;;;;;;4992090;28;20747;-65
2022/01/26 01:59:33;;;;;;;16.27;9.53;;;4.40;99.90;;;;;;4993698;28;20209;-66
2022/01/26 02:02:00;;;;;;;16.90;9.57;;;4.40;99.90;;;;;;4989517;28;20204;-66
2022/01/26 02:04:26;;;;;;;20.27;10.23;;;4.40;99.90;;;;;;4995194;28;20177;-65
2022/01/26 02:06:51;;;;;;;20.33;10.53;;;4.40;99.90;;;;;;4992677;28;20196;-65
2022/01/26 02:09:17;;;;;;;14.63;9.60;;;4.40;99.90;;;;;;4993961;28;20177;-65
2022/01/26 02:11:50;;;;;;;16.87;9.23;;;4.40;99.90;;;;;;4993513;28;20291;-65
2022/01/26 02:14:23;;;;;;;16.77;9.50;;;4.40;99.90;;;;;;4977382;28;20215;-66
2022/01/26 02:17:03;;;;;;;16.43;10.60;;;4.40;99.90;;;;;;4992599;28;20219;-66
2022/01/26 02:50:11;;;;;;;17.73;9.50;;;5.00;99.90;;;;;;4908890;28;20684;-59
2022/01/26 02:52:54;;;;;;;17.77;10.50;;;5.10;99.90;;;;;;4974029;28;20208;-59
2022/01/26 02:55:37;;;;;;;18.60;10.53;;;5.10;99.90;;;;;;4997122;28;20661;-60
2022/01/26 02:58:24;;;;;;;16.43;9.83;;;5.10;99.90;;;;;;4994664;28;20293;-60
2022/01/26 03:01:09;;;;;;;16.73;9.73;;;5.20;99.90;;;;;;4996810;28;20575;-58
2022/01/26 03:03:46;;;;;;;18.07;10.57;;;5.20;99.90;;;;;;4996515;28;20184;-59
2022/01/26 03:06:17;;;;;;;20.63;10.90;;;5.20;99.90;;;;;;4995645;28;20285;-59
2022/01/26 03:08:50;;;;;;;14.63;9.37;;;5.20;99.90;;;;;;4988590;28;20654;-59
2022/01/26 03:11:16;;;;;;;16.07;9.93;;;5.20;99.90;;;;;;5043442;28;20202;-66
2022/01/26 03:13:48;;;;;;;19.30;10.17;;;5.20;99.90;;;;;;4983894;28;20272;-66
2022/01/26 03:16:26;;;;;;;14.90;9.67;;;5.00;99.90;;;;;;4994505;28;20458;-63
2022/01/26 03:19:14;;;;;;;18.63;10.50;;;4.90;99.90;;;;;;5031888;28;20195;-63
2022/01/26 03:21:51;;;;;;;17.67;11.77;;;4.80;99.90;;;;;;4982740;28;20201;-65
2022/01/26 03:35:28;;;;;;;16.07;10.33;;;4.40;99.90;;;;;;4933607;28;20225;-65
2022/01/26 03:37:56;;;;;;;23.13;13.03;;;4.40;99.90;;;;;;4968520;28;20228;-65
2022/01/26 03:40:31;;;;;;;20.90;11.40;;;4.40;99.90;;;;;;4991204;28;20240;-66
2022/01/26 03:42:57;;;;;;;26.37;11.63;;;4.40;99.90;;;;;;4995002;28;20207;-66
2022/01/26 03:45:23;;;;;;;25.30;11.97;;;4.30;99.90;;;;;;4994399;28;20284;-66
2022/01/26 03:47:48;;;;;;;23.70;12.70;;;4.40;99.90;;;;;;4993422;28;20299;-64
2022/01/26 03:50:14;;;;;;;21.00;13.07;;;4.30;99.90;;;;;;4992921;28;20197;-66
2022/01/26 03:52:39;;;;;;;20.37;12.50;;;4.20;99.90;;;;;;4994422;28;20208;-65
2022/01/26 03:55:05;;;;;;;21.83;11.17;;;4.20;99.90;;;;;;4992811;28;20227;-64
2022/01/26 03:57:30;;;;;;;25.93;12.63;;;4.20;99.90;;;;;;4992949;28;20205;-66
2022/01/26 03:59:56;;;;;;;22.70;12.10;;;4.20;99.90;;;;;;4995101;28;20227;-67
2022/01/26 04:02:23;;;;;;;27.63;12.63;;;4.20;99.90;;;;;;4991890;28;20201;-65
2022/01/26 04:04:54;;;;;;;23.93;13.60;;;4.20;99.90;;;;;;4994860;28;20200;-66
2022/01/26 04:07:20;;;;;;;27.73;12.40;;;4.10;99.90;;;;;;4990640;28;20209;-66
2022/01/26 04:09:45;;;;;;;30.23;15.43;;;4.10;99.90;;;;;;4994806;28;20209;-66
2022/01/26 04:12:11;;;;;;;24.93;12.90;;;4.10;99.90;;;;;;4995129;28;20196;-66
2022/01/26 04:14:37;;;;;;;26.37;15.30;;;4.10;99.90;;;;;;4994909;28;20242;-66
2022/01/26 04:17:03;;;;;;;23.50;13.20;;;4.20;99.90;;;;;;4995358;28;20219;-67
2022/01/26 04:19:31;;;;;;;25.23;13.80;;;4.10;99.90;;;;;;4988714;28;20550;-66
2022/01/26 04:22:07;;;;;;;28.57;14.60;;;4.00;99.90;;;;;;4995331;28;20986;-66
2022/01/26 04:24:38;;;;;;;26.33;12.70;;;4.10;99.90;;;;;;4991819;28;20196;-66
2022/01/26 04:27:21;;;;;;;28.73;15.93;;;4.00;99.90;;;;;;4969248;28;20203;-66
2022/01/26 04:29:48;;;;;;;28.73;14.83;;;3.90;99.90;;;;;;4993459;28;20623;-67
2022/01/26 04:32:15;;;;;;;30.40;14.37;;;3.90;99.90;;;;;;4993371;28;20246;-66
2022/01/26 04:34:41;;;;;;;28.97;13.90;;;3.90;99.90;;;;;;4993838;28;20537;-67
2022/01/26 04:37:22;;;;;;;29.47;14.10;;;3.90;99.90;;;;;;4989007;28;20248;-65
2022/01/26 04:40:10;;;;;;;26.77;13.57;;;3.90;99.90;;;;;;4998324;28;20247;-65
2022/01/26 04:42:51;;;;;;;24.53;13.10;;;3.90;99.90;;;;;;4975906;28;20234;-66
2022/01/26 04:45:16;;;;;;;28.90;14.97;;;3.90;99.90;;;;;;4959820;28;20410;-66
2022/01/26 04:47:42;;;;;;;21.63;12.60;;;3.90;99.90;;;;;;4974125;28;20227;-67
2022/01/26 04:50:09;;;;;;;24.60;12.77;;;3.90;99.90;;;;;;4966046;28;20255;-66
2022/01/26 04:52:35;;;;;;;31.67;14.77;;;4.00;99.90;;;;;;4972157;28;20229;-66
2022/01/26 04:55:01;;;;;;;24.73;13.00;;;3.90;99.90;;;;;;4956158;28;20251;-66
2022/01/26 04:57:26;;;;;;;23.40;11.70;;;3.90;99.90;;;;;;4975262;28;20212;-65
2022/01/26 04:59:52;;;;;;;22.03;12.00;;;3.90;99.90;;;;;;4968524;28;20223;-66
2022/01/26 05:02:17;;;;;;;23.87;14.13;;;3.90;99.90;;;;;;4970530;28;20201;-66
2022/01/26 05:04:43;;;;;;;26.87;12.30;;;3.90;99.90;;;;;;4972197;28;20531;-66
2022/01/26 05:07:08;;;;;;;28.17;13.77;;;3.90;99.90;;;;;;4975539;28;20201;-66
2022/01/26 05:09:34;;;;;;;21.80;11.53;;;3.90;99.90;;;;;;4968687;28;20188;-66
2022/01/26 05:12:01;;;;;;;26.03;13.03;;;3.80;99.90;;;;;;4967848;28;20205;-65
2022/01/26 05:14:27;;;;;;;16.90;9.27;;;3.80;99.90;;;;;;4975791;28;20603;-66
2022/01/26 05:16:52;;;;;;;21.57;11.83;;;3.80;99.90;;;;;;4971110;28;20205;-66
2022/01/26 05:19:18;;;;;;;21.57;11.13;;;3.70;99.90;;;;;;4970519;28;20205;-66
2022/01/26 05:21:44;;;;;;;19.10;10.43;;;3.70;99.90;;;;;;4973671;28;20875;-66
2022/01/26 05:24:10;;;;;;;20.87;10.07;;;3.70;99.90;;;;;;4984062;28;20616;-67
2022/01/26 05:26:37;;;;;;;16.23;9.50;;;3.70;99.90;;;;;;4964445;28;20190;-66
2022/01/26 05:29:04;;;;;;;13.50;8.23;;;3.70;99.90;;;;;;4980727;28;20204;-65
2022/01/26 05:31:29;;;;;;;15.50;8.30;;;3.70;99.90;;;;;;4963135;28;20209;-66
2022/01/26 05:33:55;;;;;;;18.47;9.77;;;3.60;99.90;;;;;;4973173;28;20192;-66
2022/01/26 05:36:20;;;;;;;14.97;7.13;;;3.60;99.90;;;;;;4975765;28;20746;-66
2022/01/26 05:38:46;;;;;;;17.80;8.37;;;3.60;99.90;;;;;;4969984;28;20215;-65
2022/01/26 05:41:11;;;;;;;17.77;8.50;;;3.50;99.90;;;;;;4975651;28;20339;-65
2022/01/26 05:43:37;;;;;;;14.73;9.30;;;3.50;99.90;;;;;;4997792;28;20208;-65
2022/01/26 05:46:09;;;;;;;18.00;9.93;;;3.40;99.90;;;;;;4993096;28;20200;-66
2022/01/26 05:48:38;;;;;;;14.73;9.13;;;3.40;99.90;;;;;;4981625;28;20203;-67
2022/01/26 05:51:06;;;;;;;15.80;8.83;;;3.50;99.90;;;;;;4985259;28;20193;-67
2022/01/26 05:53:33;;;;;;;23.33;10.67;;;3.40;99.90;;;;;;4999082;28;20197;-67
2022/01/26 05:55:59;;;;;;;15.97;8.57;;;3.50;99.90;;;;;;5000116;28;20684;-67
2022/01/26 05:58:25;;;;;;;20.73;9.17;;;3.50;99.90;;;;;;4993334;28;20252;-65
2022/01/26 06:00:51;;;;;;;15.03;9.13;;;3.50;99.90;;;;;;4998915;28;20210;-66
2022/01/26 06:03:16;;;;;;;17.73;9.03;;;3.50;99.90;;;;;;4989798;28;20193;-66
2022/01/26 06:05:42;;;;;;;16.73;8.57;;;3.50;99.90;;;;;;4993451;28;20288;-66
2022/01/26 06:08:08;;;;;;;19.20;8.63;;;3.40;99.90;;;;;;4988479;28;20201;-65
2022/01/26 06:10:34;;;;;;;17.43;9.80;;;3.50;99.90;;;;;;4983130;28;20279;-66
2022/01/26 06:13:00;;;;;;;17.60;9.93;;;3.40;99.90;;;;;;4985412;28;20215;-65
2022/01/26 06:15:25;;;;;;;16.07;9.43;;;3.40;99.90;;;;;;5002512;28;20278;-64
2022/01/26 06:17:51;;;;;;;15.03;9.03;;;3.40;99.90;;;;;;4997997;28;20207;-66
2022/01/26 06:20:16;;;;;;;26.33;11.43;;;3.40;99.90;;;;;;4983122;28;20789;-65
2022/01/26 06:22:42;;;;;;;22.00;11.23;;;3.50;99.90;;;;;;4986553;28;20203;-67
2022/01/26 06:25:08;;;;;;;23.33;12.27;;;3.50;99.90;;;;;;4993477;28;20175;-65
2022/01/26 06:27:35;;;;;;;22.37;10.77;;;3.50;99.90;;;;;;4983669;28;20268;-66
2022/01/26 06:30:03;;;;;;;24.40;10.13;;;3.50;99.90;;;;;;4983649;28;20661;-67
2022/01/26 06:32:29;;;;;;;19.17;8.67;;;3.60;99.90;;;;;;4981440;28;20192;-80
2022/01/26 06:34:55;;;;;;;23.40;10.83;;;3.60;99.90;;;;;;4984213;28;20197;-66
2022/01/26 06:37:21;;;;;;;24.87;11.20;;;3.70;99.90;;;;;;4991289;28;20200;-65
2022/01/26 06:39:46;;;;;;;24.27;12.17;;;3.80;99.90;;;;;;4992131;28;20610;-65
2022/01/26 06:42:15;;;;;;;26.67;12.30;;;3.80;99.90;;;;;;5003005;28;20641;-64
2022/01/26 06:44:56;;;;;;;22.83;10.80;;;3.80;99.90;;;;;;5000917;28;20777;-65
2022/01/26 06:49:53;;;;;;;21.00;10.93;;;3.80;99.90;;;;;;4990427;28;20196;-65
2022/01/26 06:52:19;;;;;;;23.13;11.63;;;3.70;99.90;;;;;;4992609;28;20196;-66
2022/01/26 06:54:44;;;;;;;21.60;11.70;;;3.60;99.90;;;;;;4990804;28;20397;-64
2022/01/26 06:57:10;;;;;;;26.53;11.87;;;3.80;99.90;;;;;;4991130;28;20674;-65
2022/01/26 06:59:35;;;;;;;22.07;11.37;;;3.80;99.90;;;;;;4991524;28;20242;-64
2022/01/26 07:02:01;;;;;;;24.83;12.20;;;3.80;99.90;;;;;;4991884;28;20188;-65
2022/01/26 07:04:27;;;;;;;21.37;11.00;;;3.70;99.90;;;;;;4991153;28;20660;-64
2022/01/26 07:06:52;;;;;;;23.27;11.37;;;3.60;99.90;;;;;;4992941;28;20177;-64
2022/01/26 07:09:18;;;;;;;20.07;11.33;;;3.60;99.90;;;;;;4990729;28;20676;-63
2022/01/26 07:11:45;;;;;;;25.23;12.13;;;3.70;99.90;;;;;;4991617;28;20279;-65
2022/01/26 07:14:26;;;;;;;22.93;11.40;;;3.60;99.90;;;;;;4994363;28;20204;-65
2022/01/26 07:22:16;;;;;;;20.23;10.73;;;3.60;99.90;;;;;;4992627;28;20180;-65
2022/01/26 07:24:41;;;;;;;24.60;11.57;;;3.50;99.90;;;;;;4986342;28;20284;-65
2022/01/26 07:27:07;;;;;;;24.37;12.13;;;3.50;99.90;;;;;;4994025;28;20711;-64
2022/01/26 07:29:33;;;;;;;24.67;12.47;;;3.50;99.90;;;;;;4991076;28;20685;-64
2022/01/26 07:31:58;;;;;;;22.70;12.23;;;3.50;99.90;;;;;;4990892;28;20189;-64
2022/01/26 07:34:24;;;;;;;25.77;11.00;;;3.50;99.90;;;;;;4994081;28;20251;-64
2022/01/26 07:36:54;;;;;;;23.30;11.77;;;3.50;99.90;;;;;;4992751;28;20213;-64
2022/01/26 07:39:30;;;;;;;24.70;12.53;;;3.50;99.90;;;;;;4991433;28;20270;-64
2022/01/26 07:41:57;;;;;;;25.03;11.23;;;3.50;99.90;;;;;;4982628;28;20238;-65
2022/01/26 07:44:22;;;;;;;28.03;10.93;;;3.50;99.90;;;;;;4984101;28;21022;-64
2022/01/26 07:46:48;;;;;;;25.87;11.77;;;3.50;99.90;;;;;;4988488;28;20219;-63
2022/01/26 07:49:13;;;;;;;26.67;11.23;;;3.50;99.90;;;;;;4969961;28;20236;-64
2022/01/26 07:51:39;;;;;;;29.07;12.17;;;3.60;99.90;;;;;;4993128;28;20238;-64
2022/01/26 07:54:04;;;;;;;24.10;11.23;;;3.70;99.90;;;;;;4990760;28;20607;-63
2022/01/26 07:56:30;;;;;;;26.23;12.47;;;3.70;99.90;;;;;;4989891;28;20316;-62
2022/01/26 07:58:57;;;;;;;27.50;12.77;;;3.60;99.90;;;;;;5000920;28;20200;-64
2022/01/26 08:01:23;;;;;;;26.43;13.07;;;3.60;99.90;;;;;;4991182;28;20841;-64
2022/01/26 08:03:49;;;;;;;20.90;11.27;;;3.60;99.90;;;;;;4992951;28;20633;-64
2022/01/26 08:06:17;;;;;;;22.63;11.90;;;3.50;99.90;;;;;;4993497;28;20667;-64
2022/01/26 08:08:43;;;;;;;25.57;12.27;;;3.50;99.90;;;;;;4994161;28;20670;-64
2022/01/26 08:11:08;;;;;;;27.80;12.83;;;3.60;99.90;;;;;;4989991;28;20199;-65
2022/01/26 08:13:34;;;;;;;23.47;11.80;;;3.60;99.90;;;;;;4992124;28;20561;-66
2022/01/26 08:15:59;;;;;;;25.67;12.40;;;3.60;99.90;;;;;;4994346;28;20679;-65
2022/01/26 08:18:25;;;;;;;23.27;12.90;;;3.50;99.90;;;;;;4996652;28;20189;-65
2022/01/26 08:20:51;;;;;;;23.23;12.03;;;3.60;99.90;;;;;;4990670;28;20227;-64
2022/01/26 08:23:19;;;;;;;26.23;12.37;;;3.60;99.90;;;;;;4995459;28;20703;-64
2022/01/26 08:25:45;;;;;;;20.90;11.73;;;3.60;99.90;;;;;;4989597;28;20196;-64
2022/01/26 08:28:19;;;;;;;24.57;11.73;;;3.70;99.90;;;;;;4994569;28;20765;-65
2022/01/26 08:30:45;;;;;;;31.60;11.70;;;3.60;99.90;;;;;;4999700;28;20276;-65
2022/01/26 08:33:10;;;;;;;26.60;12.57;;;3.50;99.90;;;;;;4990728;28;20220;-64
2022/01/26 08:35:36;;;;;;;25.97;12.30;;;3.50;99.90;;;;;;4998763;28;20247;-65
2022/01/26 08:38:02;;;;;;;23.73;11.60;;;3.50;99.90;;;;;;4992374;28;20471;-65
2022/01/26 08:40:28;;;;;;;22.70;12.50;;;3.40;99.90;;;;;;4985157;28;20225;-64
2022/01/26 08:42:54;;;;;;;21.80;11.60;;;3.60;99.90;;;;;;4998025;28;20208;-65
2022/01/26 08:45:20;;;;;;;27.83;13.63;;;3.60;99.90;;;;;;4991684;28;20188;-64
2022/01/26 08:47:47;;;;;;;21.87;11.23;;;3.60;99.90;;;;;;4983253;28;20201;-64
2022/01/26 08:50:13;;;;;;;20.67;10.47;;;3.60;99.90;;;;;;4986916;28;20271;-64
2022/01/26 08:52:42;;;;;;;25.23;12.13;;;3.70;99.90;;;;;;4992822;28;20710;-65
2022/01/26 08:55:10;;;;;;;22.77;12.43;;;3.70;99.90;;;;;;5001746;28;20196;-65
2022/01/26 08:57:35;;;;;;;21.77;12.83;;;3.70;99.90;;;;;;4984158;28;20223;-64
2022/01/26 09:00:01;;;;;;;24.73;12.27;;;3.70;99.90;;;;;;4995489;28;20212;-64
2022/01/26 09:02:27;;;;;;;21.07;10.97;;;3.70;99.90;;;;;;4995601;28;20525;-65
2022/01/26 09:04:52;;;;;;;31.07;11.37;;;3.70;99.90;;;;;;4995031;28;20204;-65
2022/01/26 09:07:20;;;;;;;19.77;11.20;;;3.70;99.90;;;;;;4995507;28;20654;-65
2022/01/26 09:09:46;;;;;;;20.63;11.60;;;3.60;99.90;;;;;;4996806;28;20196;-65
2022/01/26 09:12:17;;;;;;;24.27;10.97;;;3.60;99.90;;;;;;4997916;28;20189;-65
2022/01/26 09:14:44;;;;;;;19.83;10.97;;;3.50;99.90;;;;;;4990167;28;20254;-65
2022/01/26 09:17:11;;;;;;;19.80;11.57;;;3.60;99.90;;;;;;4998066;28;20551;-65
2022/01/26 09:19:38;;;;;;;15.83;9.60;;;3.60;99.90;;;;;;4990512;28;20250;-65
2022/01/26 09:22:07;;;;;;;21.00;10.47;;;3.70;99.90;;;;;;4993611;28;20223;-66
2022/01/26 09:24:35;;;;;;;20.13;11.43;;;3.90;99.90;;;;;;4993625;28;20197;-65
2022/01/26 09:27:01;;;;;;;19.47;10.40;;;3.90;99.90;;;;;;4994605;28;20197;-65
2022/01/26 09:29:28;;;;;;;14.17;9.50;;;3.80;99.90;;;;;;4984334;28;20197;-66
2022/01/26 09:31:54;;;;;;;18.10;10.43;;;3.70;99.90;;;;;;4989398;28;20610;-65
2022/01/26 09:34:35;;;;;;;18.17;9.10;;;3.60;99.90;;;;;;4998892;28;20579;-64
2022/01/26 09:37:02;;;;;;;18.47;9.80;;;3.60;99.90;;;;;;4984111;28;20580;-63
2022/01/26 09:39:29;;;;;;;19.80;10.53;;;3.70;99.90;;;;;;4983685;28;20212;-64
2022/01/26 09:41:54;;;;;;;19.40;11.33;;;3.70;99.90;;;;;;4992647;28;20290;-63
2022/01/26 09:44:21;;;;;;;19.97;9.87;;;3.70;99.90;;;;;;4991064;28;20197;-64
2022/01/26 09:46:47;;;;;;;18.67;9.53;;;3.80;99.90;;;;;;4987941;28;20262;-65
2022/01/26 09:49:17;;;;;;;15.20;8.43;;;3.80;99.90;;;;;;4995266;28;20203;-64
2022/01/26 09:51:44;;;;;;;18.47;10.50;;;3.70;99.90;;;;;;4983829;28;20568;-64
2022/01/26 09:54:16;;;;;;;20.13;10.30;;;3.70;99.90;;;;;;4989522;28;20204;-64
2022/01/26 09:56:44;;;;;;;16.20;9.70;;;3.70;99.90;;;;;;4984253;28;20222;-64
2022/01/26 09:59:10;;;;;;;18.77;10.53;;;3.70;99.90;;;;;;4992995;28;20270;-64
2022/01/26 10:01:46;;;;;;;17.73;9.33;;;3.70;99.90;;;;;;4984438;28;20266;-63
2022/01/26 10:04:40;;;;;;;17.83;10.07;;;3.70;99.90;;;;;;4992093;28;20199;-63
2022/01/26 10:07:40;;;;;;;18.90;8.90;;;3.60;99.90;;;;;;4970825;28;20196;-64
2022/01/26 10:15:44;;;;;;;19.23;10.57;;;3.70;99.90;;;;;;4967203;28;20661;-63
2022/01/26 10:18:15;;;;;;;18.07;9.57;;;3.70;99.90;;;;;;4972805;28;20209;-64
2022/01/26 10:20:53;;;;;;;18.23;10.37;;;3.70;99.90;;;;;;5000674;28;20216;-64
2022/01/26 10:23:21;;;;;;;14.20;9.50;;;3.80;99.90;;;;;;4984602;28;20196;-64
2022/01/26 10:25:59;;;;;;;20.07;9.57;;;3.80;99.90;;;;;;4997927;28;20188;-65
2022/01/26 10:28:24;;;;;;;14.60;8.70;;;3.80;99.90;;;;;;4992457;28;20230;-64
2022/01/26 10:30:50;;;;;;;15.10;9.90;;;3.90;99.90;;;;;;4991104;28;20684;-64
2022/01/26 10:33:16;;;;;;;18.17;9.67;;;3.90;99.90;;;;;;4986022;28;20288;-64
2022/01/26 10:35:42;;;;;;;14.67;9.20;;;3.90;99.90;;;;;;4982655;28;20217;-64
2022/01/26 10:38:07;;;;;;;19.00;9.17;;;4.00;99.90;;;;;;4987356;28;20208;-65
2022/01/26 10:40:35;;;;;;;14.30;8.10;;;4.10;99.90;;;;;;4986567;28;20225;-64
2022/01/26 10:43:10;;;;;;;14.10;8.83;;;4.20;99.90;;;;;;4989164;28;20283;-64
2022/01/26 10:45:56;;;;;;;11.97;6.83;;;4.10;99.90;;;;;;4963803;28;20586;-64
2022/01/26 10:48:38;;;;;;;10.37;6.93;;;4.10;99.90;;;;;;4991909;28;20934;-65
2022/01/26 10:51:33;;;;;;;11.57;7.83;;;4.00;99.90;;;;;;4996011;28;20248;-64
2022/01/26 10:54:10;;;;;;;10.93;7.30;;;4.00;99.90;;;;;;5003534;28;20243;-64
2022/01/26 10:56:36;;;;;;;10.17;6.47;;;4.00;99.90;;;;;;5020126;28;20232;-64
2022/01/26 10:59:02;;;;;;;9.57;6.50;;;3.90;99.90;;;;;;4999679;28;20224;-64
2022/01/26 11:01:27;;;;;;;10.40;6.63;;;3.90;99.90;;;;;;4990119;28;20242;-64
2022/01/26 11:03:53;;;;;;;11.37;6.60;;;3.80;99.90;;;;;;4995297;28;20201;-64
2022/01/26 11:06:19;;;;;;;11.03;6.33;;;3.80;99.90;;;;;;4988149;28;20218;-64
2022/01/26 11:08:45;;;;;;;9.30;5.17;;;3.80;99.90;;;;;;5000542;28;20195;-64
2022/01/26 11:11:21;;;;;;;10.00;6.63;;;3.90;99.90;;;;;;4993452;28;20658;-65
2022/01/26 11:13:47;;;;;;;10.07;5.43;;;4.00;99.90;;;;;;4985248;28;20208;-64
2022/01/26 11:16:14;;;;;;;8.40;5.57;;;4.00;99.90;;;;;;4994073;28;20208;-65
2022/01/26 11:18:54;;;;;;;5.47;3.93;;;3.90;99.90;;;;;;4994014;28;20189;-64
2022/01/26 11:21:35;;;;;;;6.23;4.23;;;3.80;99.90;;;;;;4996360;28;20236;-64
2022/01/26 11:24:05;;;;;;;7.50;5.73;;;3.80;99.90;;;;;;4998883;28;20729;-64
2022/01/26 11:26:31;;;;;;;8.00;5.90;;;3.80;99.90;;;;;;4993287;28;20295;-65
2022/01/26 11:28:57;;;;;;;8.57;5.17;;;3.70;99.90;;;;;;5002703;28;20318;-65
2022/01/26 11:31:24;;;;;;;8.47;5.70;;;3.70;99.90;;;;;;4992067;28;20206;-65
2022/01/26 11:33:50;;;;;;;9.37;5.23;;;3.60;99.90;;;;;;4998398;28;20663;-65
2022/01/26 11:36:18;;;;;;;6.57;4.87;;;3.50;99.90;;;;;;4991196;28;20219;-65
2022/01/26 11:47:18;;;;;;;10.57;6.57;;;3.40;99.90;;;;;;5010820;28;20574;-66
2022/01/26 11:49:44;;;;;;;13.53;6.80;;;3.40;99.90;;;;;;4971371;28;20541;-65
2022/01/26 11:52:27;;;;;;;12.13;7.27;;;3.40;99.90;;;;;;4992732;28;20201;-65
2022/01/26 11:54:59;;;;;;;12.03;7.60;;;3.40;99.90;;;;;;4987228;28;20231;-65
2022/01/26 11:57:49;;;;;;;11.80;7.17;;;3.40;99.90;;;;;;4993582;28;20715;-67
2022/01/26 12:00:21;;;;;;;11.03;6.17;;;3.40;99.90;;;;;;5033448;28;20220;-66
2022/01/26 12:05:17;;;;;;;12.00;7.77;;;3.40;99.90;;;;;;4996092;28;20193;-64
2022/01/26 12:07:49;;;;;;;14.07;7.20;;;3.40;99.90;;;;;;4993679;28;20253;-66
2022/01/26 12:10:29;;;;;;;13.37;7.13;;;3.40;99.90;;;;;;4999804;28;20192;-71
2022/01/26 12:13:06;;;;;;;13.03;7.63;;;3.40;99.90;;;;;;4973123;28;20195;-71
2022/01/26 12:15:42;;;;;;;12.70;7.63;;;3.40;99.90;;;;;;4988518;28;20306;-70
2022/01/26 12:32:09;;;;;;;15.57;8.73;;;3.40;99.90;;;;;;4986105;28;20218;-68
2022/01/26 12:34:42;;;;;;;14.40;6.17;;;3.60;99.90;;;;;;5004144;28;20725;-67
2022/01/26 12:43:01;;;;;;;12.20;6.60;;;3.70;99.90;;;;;;4975755;28;20306;-65
2022/01/26 12:45:27;;;;;;;10.57;5.47;;;3.80;99.90;;;;;;4973735;28;20185;-65
2022/01/26 12:47:55;;;;;;;10.93;6.33;;;3.80;99.90;;;;;;4981573;28;20185;-65
2022/01/26 12:50:22;;;;;;;11.43;6.47;;;3.70;99.90;;;;;;4966835;28;20280;-66
2022/01/26 12:52:50;;;;;;;12.43;6.23;;;3.70;99.90;;;;;;4956980;28;20479;-65
2022/01/26 12:55:24;;;;;;;8.83;5.20;;;3.60;99.90;;;;;;4973643;28;20283;-64
2022/01/26 12:57:50;;;;;;;10.20;6.43;;;3.60;99.90;;;;;;4981809;28;20203;-64
2022/01/26 13:00:16;;;;;;;11.77;6.37;;;3.60;99.90;;;;;;4972991;28;20420;-65
2022/01/26 13:02:42;;;;;;;11.87;7.43;;;3.70;99.90;;;;;;4973985;28;20204;-64
2022/01/26 13:05:08;;;;;;;12.97;5.93;;;3.60;99.90;;;;;;4973210;28;20190;-65
2022/01/26 13:07:34;;;;;;;11.77;7.17;;;3.70;99.90;;;;;;4972756;28;20205;-66
2022/01/26 13:09:59;;;;;;;13.40;6.07;;;3.70;99.90;;;;;;4975260;28;20618;-67
2022/01/26 13:12:29;;;;;;;14.27;5.87;;;3.70;99.90;;;;;;4970616;28;20200;-65
2022/01/26 13:15:05;;;;;;;12.07;6.20;;;3.80;99.90;;;;;;4980421;28;20205;-65
2022/01/26 13:17:37;;;;;;;13.87;7.67;;;3.80;99.90;;;;;;4973368;28;20204;-65
2022/01/26 13:28:26;;;;;;;13.40;7.00;;;3.80;99.90;;;;;;4973248;28;20234;-67
2022/01/26 13:39:36;;;;;;;15.33;7.67;;;3.80;99.90;;;;;;4976529;28;20205;-64
2022/01/26 13:42:30;;;;;;;14.60;8.33;;;3.70;99.90;;;;;;4987818;28;20243;-65
2022/01/26 13:47:42;;;;;;;20.87;9.50;;;3.70;99.90;;;;;;4985968;28;20197;-64
2022/01/26 13:52:58;;;;;;;23.07;10.00;;;3.70;99.90;;;;;;4971918;28;20199;-64
2022/01/26 13:55:43;;;;;;;20.33;10.13;;;3.60;99.90;;;;;;4976501;28;20584;-65
2022/01/26 13:58:39;;;;;;;24.37;9.97;;;3.70;99.90;;;;;;4979891;28;20196;-74
2022/01/26 14:01:04;;;;;;;25.53;11.53;;;3.50;99.90;;;;;;4985465;28;20568;-75
2022/01/26 14:03:33;;;;;;;23.83;11.07;;;3.30;99.90;;;;;;4993549;28;20290;-74
2022/01/26 14:05:58;;;;;;;19.67;9.27;;;3.20;99.90;;;;;;4989264;28;20203;-73
2022/01/26 14:08:23;;;;;;;19.50;9.13;;;3.20;99.90;;;;;;4991224;28;20203;-74
2022/01/26 14:10:49;;;;;;;22.30;10.23;;;3.10;99.90;;;;;;4991800;28;20199;-72
2022/01/26 14:13:20;;;;;;;22.90;9.90;;;3.00;99.90;;;;;;4983562;28;20662;-74
2022/01/26 14:15:49;;;;;;;30.80;13.33;;;2.90;99.90;;;;;;4992097;28;20270;-72
2022/01/26 14:21:25;;;;;;;25.97;10.80;;;2.90;99.90;;;;;;4993617;28;20677;-75
2022/01/26 14:23:57;;;;;;;26.33;11.57;;;2.90;99.90;;;;;;4986219;28;20677;-75
2022/01/26 14:26:26;;;;;;;20.23;9.53;;;2.90;99.90;;;;;;4992820;28;20647;-75
2022/01/26 14:28:52;;;;;;;28.47;10.20;;;2.90;99.90;;;;;;4985435;28;20280;-75
2022/01/26 14:36:44;;;;;;;19.33;10.27;;;3.00;99.90;;;;;;4990446;28;20582;-73
2022/01/26 14:55:42;;;;;;;28.50;11.83;;;2.80;99.90;;;;;;4988823;28;20202;-77
2022/01/26 15:01:29;;;;;;;32.90;12.70;;;2.90;99.90;;;;;;4990728;28;20604;-66
2022/01/26 15:09:39;;;;;;;29.13;12.80;;;3.20;99.90;;;;;;4989716;28;20292;-64
2022/01/26 15:12:18;;;;;;;34.43;12.63;;;3.20;99.90;;;;;;4999449;28;20184;-71
2022/01/26 15:21:44;;;;;;;31.53;12.67;;;2.90;99.90;;;;;;4974993;28;20281;-74
2022/01/26 15:32:21;;;;;;;24.03;11.57;;;2.50;99.90;;;;;;4986229;28;20752;-74
2022/01/26 15:42:43;;;;;;;30.07;12.47;;;2.60;99.90;;;;;;4964811;28;20320;-74
2022/01/26 15:53:13;;;;;;;29.23;13.83;;;2.50;99.90;;;;;;4967613;28;20206;-74
2022/01/26 16:39:26;;;;;;;62.70;21.90;;;2.60;99.90;;;;;;4976848;28;20189;-74
2022/01/26 17:26:24;;;;;;;73.67;31.07;;;2.40;99.90;;;;;;4976277;28;20572;-72
2022/01/26 17:48:18;;;;;;;84.77;32.50;;;2.50;99.90;;;;;;4988501;28;20221;-74
2022/01/26 18:15:20;;;;;;;72.10;30.00;;;2.70;99.90;;;;;;4994212;28;20240;-73
2022/01/26 18:17:55;;;;;;;78.57;32.43;;;2.60;99.90;;;;;;4991624;28;20196;-73